Time;durP1;ratioP1;P1;durP2;ratioP2;P2;SDS_P1;SDS_P2;PMS_P1;PMS_P2;Temp;Humidity;BMP_temperature;BMP_pressure;BME280_temperature;BME280_humidity;BME280_pressure;Samples;Min_cycle;Max_cycle;Signal;HPM_P1;HPM_P2
2023/10/21 00:02:19;;;;;;;0.85;0.85;;;11.30;99.90;;;;;;5029204;28;20195;-81
2023/10/21 00:04:46;;;;;;;0.90;0.90;;;11.30;99.90;;;;;;5026255;28;20647;-82
2023/10/21 00:07:14;;;;;;;1.85;1.30;;;11.30;99.90;;;;;;5028967;28;20238;-81
2023/10/21 00:09:41;;;;;;;1.95;1.15;;;11.40;99.90;;;;;;5024776;28;20551;-81
2023/10/21 00:12:09;;;;;;;1.70;1.15;;;11.40;99.90;;;;;;5029868;28;20206;-82
2023/10/21 00:14:36;;;;;;;1.38;1.20;;;11.40;99.90;;;;;;5027979;28;20195;-81
2023/10/21 00:17:04;;;;;;;1.10;1.00;;;11.30;99.90;;;;;;5030953;28;20201;-81
2023/10/21 00:19:31;;;;;;;1.13;1.02;;;11.30;99.90;;;;;;5025963;28;20218;-81
2023/10/21 00:21:58;;;;;;;1.45;0.95;;;11.20;99.90;;;;;;5028984;28;20214;-82
2023/10/21 00:24:27;;;;;;;1.33;1.23;;;11.20;99.90;;;;;;5028318;28;20216;-81
2023/10/21 00:26:53;;;;;;;1.10;1.00;;;11.10;99.90;;;;;;5026838;28;20222;-82
2023/10/21 00:29:20;;;;;;;0.73;0.73;;;11.10;99.90;;;;;;5027623;28;20199;-81
2023/10/21 00:31:47;;;;;;;1.80;1.10;;;11.10;99.90;;;;;;5028298;28;20202;-82
2023/10/21 00:34:14;;;;;;;0.77;0.77;;;11.10;99.90;;;;;;5030186;28;20202;-82
2023/10/21 00:36:41;;;;;;;2.05;1.95;;;11.00;99.90;;;;;;5017555;28;20433;-82
2023/10/21 00:39:10;;;;;;;0.90;0.90;;;11.00;99.90;;;;;;5030534;28;20191;-82
2023/10/21 00:41:39;;;;;;;1.30;1.20;;;11.00;99.90;;;;;;5030372;28;20218;-82
2023/10/21 00:44:06;;;;;;;1.20;1.10;;;11.00;99.90;;;;;;5025391;28;20203;-82
2023/10/21 00:46:33;;;;;;;1.75;1.35;;;10.90;99.90;;;;;;5029673;28;20222;-81
2023/10/21 00:49:01;;;;;;;3.50;2.67;;;10.90;99.90;;;;;;5029880;28;20889;-81
2023/10/21 00:51:28;;;;;;;5.38;3.20;;;10.90;99.90;;;;;;5030426;28;20210;-81
2023/10/21 00:53:56;;;;;;;3.22;2.70;;;10.90;99.90;;;;;;5031997;28;20198;-81
2023/10/21 00:56:23;;;;;;;2.55;1.58;;;10.90;99.90;;;;;;5031693;28;20198;-81
2023/10/21 00:58:52;;;;;;;1.65;1.40;;;10.90;99.90;;;;;;5034712;28;20199;-81
2023/10/21 01:01:19;;;;;;;2.53;1.60;;;10.80;99.90;;;;;;5028856;28;20195;-82
2023/10/21 01:03:46;;;;;;;2.45;1.50;;;10.80;99.90;;;;;;5026987;28;20205;-82
2023/10/21 01:06:14;;;;;;;1.52;1.30;;;10.80;99.90;;;;;;5033326;28;20218;-82
2023/10/21 01:08:42;;;;;;;1.75;1.20;;;10.80;99.90;;;;;;5032051;28;20220;-82
2023/10/21 01:11:09;;;;;;;1.75;1.15;;;10.90;99.90;;;;;;5033923;28;20248;-82
2023/10/21 01:13:36;;;;;;;1.25;1.20;;;11.00;99.90;;;;;;5032731;28;20198;-81
2023/10/21 01:16:04;;;;;;;1.45;1.30;;;11.00;99.90;;;;;;5029312;28;20199;-82
2023/10/21 01:18:33;;;;;;;1.33;1.20;;;11.00;99.90;;;;;;5030056;28;20195;-81
2023/10/21 01:21:01;;;;;;;2.03;1.20;;;11.00;99.90;;;;;;5032333;28;20198;-81
2023/10/21 01:23:29;;;;;;;1.50;1.40;;;11.00;99.90;;;;;;5028035;28;20198;-81
2023/10/21 01:25:56;;;;;;;1.52;1.30;;;11.00;99.90;;;;;;5034885;28;20195;-81
2023/10/21 01:28:23;;;;;;;1.20;1.10;;;11.00;99.90;;;;;;5032450;28;20194;-81
2023/10/21 01:30:50;;;;;;;1.00;1.00;;;11.10;99.90;;;;;;5030719;28;20199;-81
2023/10/21 01:33:16;;;;;;;1.10;1.00;;;11.20;99.90;;;;;;5031646;28;20191;-83
2023/10/21 01:35:44;;;;;;;1.23;1.10;;;11.20;99.90;;;;;;5030813;28;21102;-81
2023/10/21 01:38:11;;;;;;;6.15;1.15;;;11.10;99.90;;;;;;5028256;28;20642;-81
2023/10/21 01:40:39;;;;;;;1.30;1.20;;;11.10;99.90;;;;;;5033590;28;20190;-81
2023/10/21 01:43:06;;;;;;;1.63;1.40;;;11.00;99.90;;;;;;5030114;28;20194;-82
2023/10/21 01:45:35;;;;;;;2.75;1.70;;;11.10;99.90;;;;;;5029434;28;20195;-81
2023/10/21 01:48:02;;;;;;;1.20;1.10;;;11.20;99.90;;;;;;5024391;28;20218;-81
2023/10/21 01:50:29;;;;;;;1.73;1.10;;;11.30;99.90;;;;;;5031460;28;20228;-82
2023/10/21 01:52:56;;;;;;;1.38;1.20;;;11.30;99.90;;;;;;5032210;28;20652;-81
2023/10/21 01:55:23;;;;;;;1.60;1.30;;;11.20;99.90;;;;;;5032749;28;20206;-81
2023/10/21 01:57:52;;;;;;;1.20;1.10;;;11.20;99.90;;;;;;5038732;28;20193;-81
2023/10/21 02:00:20;;;;;;;2.05;0.90;;;11.30;99.70;;;;;;5032149;28;20615;-86
2023/10/21 02:02:50;;;;;;;1.70;1.20;;;11.30;99.70;;;;;;5033465;28;20191;-82
2023/10/21 02:05:17;;;;;;;1.30;1.20;;;11.30;99.90;;;;;;5032646;28;20257;-81
2023/10/21 02:07:44;;;;;;;1.27;1.08;;;11.30;99.90;;;;;;5031882;28;20241;-81
2023/10/21 02:10:11;;;;;;;1.48;1.20;;;11.20;99.90;;;;;;5027639;28;20654;-82
2023/10/21 02:12:38;;;;;;;1.35;1.20;;;11.30;99.90;;;;;;5032716;28;20195;-82
2023/10/21 02:15:11;;;;;;;1.40;1.30;;;11.40;99.90;;;;;;5033904;28;20216;-82
2023/10/21 02:17:38;;;;;;;1.10;1.00;;;11.40;99.70;;;;;;5032885;28;20202;-81
2023/10/21 02:20:06;;;;;;;1.10;1.00;;;11.40;99.60;;;;;;5030332;28;20263;-81
2023/10/21 02:22:33;;;;;;;1.60;1.05;;;11.40;99.80;;;;;;5030789;28;20206;-82
2023/10/21 02:25:00;;;;;;;2.28;1.00;;;11.40;99.70;;;;;;5029882;28;20218;-81
2023/10/21 02:27:28;;;;;;;1.67;1.20;;;11.50;99.70;;;;;;5032148;28;20210;-83
2023/10/21 02:29:54;;;;;;;1.10;1.05;;;11.50;99.70;;;;;;5029311;28;20219;-81
2023/10/21 02:32:23;;;;;;;2.03;0.98;;;11.50;99.80;;;;;;5032548;28;20209;-81
2023/10/21 02:34:54;;;;;;;1.50;1.10;;;11.50;99.10;;;;;;5033631;28;20198;-82
2023/10/21 02:37:20;;;;;;;1.73;1.10;;;11.50;98.70;;;;;;5030921;28;20195;-81
2023/10/21 02:39:47;;;;;;;1.35;1.17;;;11.50;99.00;;;;;;5029509;28;20194;-82
2023/10/21 02:42:14;;;;;;;1.38;1.20;;;11.40;98.40;;;;;;5026040;28;20535;-81
2023/10/21 02:44:41;;;;;;;1.33;1.23;;;11.30;98.60;;;;;;5030968;28;20679;-85
2023/10/21 02:47:08;;;;;;;2.38;1.20;;;11.20;98.70;;;;;;5012775;28;20222;-81
2023/10/21 02:49:36;;;;;;;1.50;1.15;;;11.20;98.60;;;;;;5030057;28;20450;-81
2023/10/21 02:52:03;;;;;;;3.13;1.15;;;11.30;98.70;;;;;;5031572;28;20214;-82
2023/10/21 02:54:30;;;;;;;1.70;1.10;;;11.50;98.70;;;;;;5028182;28;20194;-81
2023/10/21 02:56:57;;;;;;;1.52;1.10;;;11.60;97.90;;;;;;5031237;28;20668;-81
2023/10/21 02:59:24;;;;;;;1.20;1.10;;;11.70;97.30;;;;;;5027902;28;20208;-81
2023/10/21 03:01:51;;;;;;;1.58;0.93;;;11.70;97.10;;;;;;5030076;28;20191;-82
2023/10/21 03:04:18;;;;;;;1.25;1.00;;;11.50;97.40;;;;;;5024918;28;20198;-81
2023/10/21 03:06:46;;;;;;;1.40;1.10;;;11.40;97.60;;;;;;5029356;28;20225;-82
2023/10/21 03:09:15;;;;;;;0.82;0.82;;;11.30;97.90;;;;;;5031936;28;20209;-81
2023/10/21 03:11:42;;;;;;;1.33;0.93;;;11.20;98.10;;;;;;5029259;28;20195;-82
2023/10/21 03:14:09;;;;;;;1.25;1.13;;;11.20;98.40;;;;;;5027303;28;20205;-81
2023/10/21 03:16:37;;;;;;;1.00;0.90;;;11.20;98.60;;;;;;5030497;28;20875;-81
2023/10/21 03:19:04;;;;;;;1.95;1.17;;;11.20;98.60;;;;;;5033918;28;20194;-81
2023/10/21 03:21:31;;;;;;;1.00;1.00;;;11.20;98.60;;;;;;5031400;28;20191;-81
2023/10/21 03:23:59;;;;;;;0.98;0.95;;;11.30;98.40;;;;;;5031772;28;20187;-81
2023/10/21 03:26:26;;;;;;;0.70;0.70;;;11.30;97.90;;;;;;5031775;28;20190;-81
2023/10/21 03:28:53;;;;;;;1.67;1.20;;;11.20;97.70;;;;;;5030915;28;20218;-81
2023/10/21 03:31:21;;;;;;;0.88;0.88;;;11.10;98.10;;;;;;5034543;28;20549;-82
2023/10/21 03:33:48;;;;;;;2.00;1.00;;;11.00;98.60;;;;;;5025983;28;20187;-83
2023/10/21 03:36:15;;;;;;;2.33;2.22;;;11.00;98.60;;;;;;5024695;28;20568;-85
2023/10/21 03:38:42;;;;;;;0.70;0.70;;;11.00;98.60;;;;;;5024870;28;20198;-81
2023/10/21 03:41:12;;;;;;;0.88;0.88;;;11.00;98.60;;;;;;5030642;28;20194;-82
2023/10/21 03:43:40;;;;;;;0.80;0.80;;;10.90;98.40;;;;;;5030944;28;20205;-81
2023/10/21 03:46:08;;;;;;;1.27;0.80;;;10.90;98.30;;;;;;5030307;28;20206;-81
2023/10/21 03:48:35;;;;;;;0.85;0.80;;;10.90;98.30;;;;;;5028092;28;20222;-81
2023/10/21 03:51:05;;;;;;;1.50;1.10;;;10.90;98.40;;;;;;5030747;28;20217;-81
2023/10/21 03:53:32;;;;;;;1.10;1.10;;;11.00;98.50;;;;;;5028872;28;20195;-81
2023/10/21 03:55:59;;;;;;;0.80;0.80;;;10.90;98.30;;;;;;5031325;28;20210;-81
2023/10/21 03:58:28;;;;;;;2.33;1.00;;;11.00;98.60;;;;;;5023185;28;20209;-82
2023/10/21 04:00:57;;;;;;;2.00;1.08;;;11.10;97.70;;;;;;5023661;28;20655;-81
2023/10/21 04:03:24;;;;;;;1.05;0.95;;;11.10;97.80;;;;;;5030642;28;20194;-81
2023/10/21 04:05:51;;;;;;;0.85;0.85;;;11.20;97.30;;;;;;5029771;28;20198;-81
2023/10/21 04:08:18;;;;;;;1.20;0.88;;;11.20;97.40;;;;;;5029090;28;20562;-82
2023/10/21 04:10:45;;;;;;;0.85;0.85;;;11.30;96.90;;;;;;5025973;28;20531;-82
2023/10/21 04:13:12;;;;;;;2.10;0.80;;;11.30;97.20;;;;;;5032652;28;20202;-81
2023/10/21 04:15:40;;;;;;;1.42;1.02;;;11.40;96.90;;;;;;5032793;28;20205;-81
2023/10/21 04:18:07;;;;;;;0.77;0.75;;;11.40;97.20;;;;;;5030713;28;20662;-81
2023/10/21 04:20:34;;;;;;;4.50;0.88;;;11.40;96.90;;;;;;5030184;28;20201;-83
2023/10/21 04:23:01;;;;;;;0.80;0.80;;;11.40;96.70;;;;;;5022565;28;20522;-83
2023/10/21 04:25:29;;;;;;;0.90;0.90;;;11.40;97.00;;;;;;5027664;28;20206;-81
2023/10/21 04:27:56;;;;;;;2.05;1.00;;;11.30;97.00;;;;;;5034689;28;20267;-81
2023/10/21 04:30:23;;;;;;;3.95;0.73;;;11.30;97.00;;;;;;5037232;28;20194;-82
2023/10/21 04:32:52;;;;;;;0.80;0.80;;;11.30;97.30;;;;;;5032282;28;20253;-81
2023/10/21 04:35:19;;;;;;;0.80;0.80;;;11.20;97.50;;;;;;5034308;28;20191;-81
2023/10/21 04:37:46;;;;;;;1.50;1.00;;;11.20;97.40;;;;;;5033345;28;20289;-83
2023/10/21 04:40:13;;;;;;;0.95;0.93;;;11.20;97.70;;;;;;5032399;28;20203;-81
2023/10/21 04:42:40;;;;;;;1.25;1.00;;;11.30;97.80;;;;;;5031230;28;20218;-82
2023/10/21 04:45:09;;;;;;;0.80;0.80;;;11.50;97.60;;;;;;5033253;28;20852;-82
2023/10/21 04:47:36;;;;;;;1.48;1.00;;;11.50;97.40;;;;;;5033065;28;20210;-81
2023/10/21 04:50:06;;;;;;;1.00;0.90;;;11.50;97.40;;;;;;5031344;28;20195;-81
2023/10/21 04:52:33;;;;;;;1.10;0.90;;;11.60;97.40;;;;;;5028664;28;20612;-83
2023/10/21 04:55:00;;;;;;;0.93;0.93;;;11.60;97.20;;;;;;5033337;28;20655;-81
2023/10/21 04:57:27;;;;;;;0.77;0.73;;;11.50;97.20;;;;;;5034847;28;20194;-81
2023/10/21 04:59:53;;;;;;;2.13;0.98;;;11.40;97.40;;;;;;5034057;28;20187;-83
2023/10/21 05:02:20;;;;;;;1.10;1.05;;;11.40;97.90;;;;;;5026947;28;20191;-81
2023/10/21 05:04:48;;;;;;;2.20;1.13;;;11.40;97.80;;;;;;5026679;28;20207;-81
2023/10/21 05:07:17;;;;;;;1.00;0.93;;;11.30;98.00;;;;;;5031589;28;20187;-81
2023/10/21 05:09:43;;;;;;;1.00;1.00;;;11.20;98.30;;;;;;5029062;28;20559;-81
2023/10/21 05:12:11;;;;;;;1.27;1.17;;;11.20;98.40;;;;;;5033764;28;20190;-81
2023/10/21 05:14:38;;;;;;;1.27;0.90;;;11.10;98.50;;;;;;5039738;28;20198;-81
2023/10/21 05:17:05;;;;;;;1.25;1.15;;;11.10;98.40;;;;;;5027865;28;20194;-82
2023/10/21 05:19:32;;;;;;;1.42;1.05;;;11.20;98.40;;;;;;5033910;28;20194;-81
2023/10/21 05:21:59;;;;;;;1.52;1.25;;;11.10;98.40;;;;;;5032791;28;20194;-82
2023/10/21 05:24:27;;;;;;;1.02;0.93;;;11.00;98.60;;;;;;5028192;28;20194;-81
2023/10/21 05:26:54;;;;;;;1.25;0.95;;;10.90;98.70;;;;;;5032499;28;20203;-81
2023/10/21 05:29:21;;;;;;;1.73;1.00;;;10.80;99.10;;;;;;5028197;28;20410;-81
2023/10/21 05:31:49;;;;;;;1.20;1.10;;;10.70;99.50;;;;;;5030727;28;20256;-82
2023/10/21 05:34:19;;;;;;;1.25;1.15;;;10.70;99.60;;;;;;5031192;28;20225;-81
2023/10/21 05:36:45;;;;;;;1.55;1.10;;;10.60;99.80;;;;;;5031789;28;20875;-81
2023/10/21 05:39:13;;;;;;;1.10;0.93;;;10.60;99.80;;;;;;5031849;28;20201;-81
2023/10/21 05:41:41;;;;;;;1.05;0.95;;;10.60;99.90;;;;;;5033803;28;20234;-82
2023/10/21 05:44:08;;;;;;;1.55;1.45;;;10.60;99.90;;;;;;5026346;28;20191;-83
2023/10/21 05:46:35;;;;;;;1.10;1.00;;;10.80;99.90;;;;;;5024745;28;20550;-85
2023/10/21 05:49:02;;;;;;;1.92;1.02;;;10.80;99.40;;;;;;5033612;28;20218;-86
2023/10/21 05:51:30;;;;;;;2.20;0.90;;;10.90;99.30;;;;;;5033712;28;20206;-85
2023/10/21 05:53:57;;;;;;;1.27;1.17;;;10.90;99.30;;;;;;5033058;28;20206;-84
2023/10/21 05:56:24;;;;;;;1.05;0.95;;;10.80;99.40;;;;;;5034938;28;20281;-83
2023/10/21 05:58:52;;;;;;;1.50;1.40;;;10.70;99.70;;;;;;5013403;28;20190;-82
2023/10/21 06:01:19;;;;;;;2.85;1.10;;;10.70;99.90;;;;;;5024406;28;20199;-83
2023/10/21 06:03:46;;;;;;;1.88;1.13;;;10.70;99.90;;;;;;5032995;28;20199;-83
2023/10/21 06:06:13;;;;;;;1.30;1.20;;;10.80;99.90;;;;;;5046180;28;20198;-83
2023/10/21 06:08:42;;;;;;;1.73;1.27;;;10.80;99.90;;;;;;5030974;28;20225;-82
2023/10/21 06:11:09;;;;;;;1.65;1.23;;;10.90;99.90;;;;;;5030720;28;20834;-83
2023/10/21 06:13:36;;;;;;;1.42;1.33;;;10.90;99.80;;;;;;5011782;28;20203;-82
2023/10/21 06:16:05;;;;;;;1.50;1.30;;;11.00;99.80;;;;;;5032266;28;20249;-83
2023/10/21 06:18:32;;;;;;;1.95;1.50;;;11.00;99.70;;;;;;5026426;28;20204;-82
2023/10/21 06:20:59;;;;;;;1.92;1.60;;;10.90;99.70;;;;;;5030762;28;20195;-82
2023/10/21 06:23:26;;;;;;;1.70;1.60;;;10.90;99.90;;;;;;5031827;28;20202;-83
2023/10/21 06:25:53;;;;;;;1.58;1.35;;;10.90;99.90;;;;;;5028814;28;20201;-82
2023/10/21 06:28:20;;;;;;;1.58;1.33;;;10.90;99.90;;;;;;5032633;28;20221;-83
2023/10/21 06:30:47;;;;;;;1.90;1.48;;;10.90;99.90;;;;;;5029183;28;20527;-82
2023/10/21 06:33:15;;;;;;;1.48;1.38;;;11.00;99.90;;;;;;5032217;28;20195;-82
2023/10/21 06:35:42;;;;;;;1.75;1.65;;;11.00;99.90;;;;;;5027172;28;20204;-82
2023/10/21 06:38:09;;;;;;;1.65;1.50;;;11.00;99.90;;;;;;5029594;28;20216;-82
2023/10/21 06:40:36;;;;;;;1.80;1.60;;;11.10;99.90;;;;;;5033016;28;20201;-82
2023/10/21 06:43:03;;;;;;;1.90;1.63;;;11.30;99.90;;;;;;5030527;28;20193;-82
2023/10/21 06:45:30;;;;;;;2.63;1.70;;;11.40;99.40;;;;;;5024007;28;20195;-83
2023/10/21 06:47:57;;;;;;;1.90;1.30;;;11.30;99.50;;;;;;5031940;28;20218;-82
2023/10/21 06:50:25;;;;;;;1.80;1.40;;;11.40;99.80;;;;;;5030661;28;20647;-83
2023/10/21 06:52:52;;;;;;;1.75;1.17;;;11.50;99.50;;;;;;5029754;28;20663;-82
2023/10/21 06:55:21;;;;;;;7.75;1.20;;;11.50;99.30;;;;;;5031640;28;20198;-82
2023/10/21 06:57:48;;;;;;;1.77;1.27;;;11.60;99.20;;;;;;5032718;28;20191;-82
2023/10/21 07:00:16;;;;;;;1.10;1.00;;;11.60;99.40;;;;;;5032243;28;20705;-82
2023/10/21 07:02:43;;;;;;;2.28;1.30;;;11.60;99.40;;;;;;5030072;28;20198;-82
2023/10/21 07:05:10;;;;;;;1.55;1.10;;;11.60;99.40;;;;;;5029561;28;20583;-82
2023/10/21 07:07:40;;;;;;;1.35;1.08;;;11.70;99.40;;;;;;5032682;28;20639;-82
2023/10/21 07:10:09;;;;;;;2.63;1.20;;;11.70;99.30;;;;;;5030928;28;20195;-82
2023/10/21 07:12:38;;;;;;;1.42;1.20;;;11.60;99.50;;;;;;5032858;28;20201;-82
2023/10/21 07:15:06;;;;;;;3.03;1.63;;;11.70;99.80;;;;;;5029132;28;20195;-82
2023/10/21 07:17:33;;;;;;;3.00;1.38;;;11.80;99.50;;;;;;5037044;28;20190;-82
2023/10/21 07:20:00;;;;;;;2.08;1.20;;;11.80;99.50;;;;;;5030920;28;20203;-82
2023/10/21 07:22:27;;;;;;;2.03;1.10;;;11.90;98.90;;;;;;5035240;28;20221;-82
2023/10/21 07:25:00;;;;;;;3.05;1.00;;;12.10;98.20;;;;;;5032353;28;20191;-82
2023/10/21 07:27:27;;;;;;;1.30;1.20;;;12.10;98.30;;;;;;5031917;28;20205;-82
2023/10/21 07:29:55;;;;;;;0.73;0.73;;;12.20;98.30;;;;;;5026468;28;20219;-83
2023/10/21 07:32:22;;;;;;;2.17;1.30;;;12.30;97.50;;;;;;5032252;28;20201;-82
2023/10/21 07:34:49;;;;;;;1.83;1.10;;;12.40;97.60;;;;;;5031502;28;20191;-82
2023/10/21 07:37:16;;;;;;;2.38;0.95;;;12.60;96.70;;;;;;5032236;28;20198;-82
2023/10/21 07:39:43;;;;;;;3.38;1.08;;;12.70;96.60;;;;;;5031334;28;20206;-82
2023/10/21 07:42:12;;;;;;;1.55;1.40;;;12.80;96.40;;;;;;5030800;28;20193;-82
2023/10/21 07:44:39;;;;;;;2.90;1.25;;;12.90;96.40;;;;;;5030978;28;20658;-82
2023/10/21 07:47:06;;;;;;;1.95;1.17;;;13.00;96.70;;;;;;5030503;28;20231;-82
2023/10/21 07:49:33;;;;;;;0.98;0.90;;;13.10;96.20;;;;;;5034695;28;20214;-82
2023/10/21 07:52:00;;;;;;;0.93;0.80;;;13.20;96.20;;;;;;5037205;28;20215;-83
2023/10/21 07:54:27;;;;;;;2.35;1.02;;;13.20;96.40;;;;;;5026335;28;20535;-83
2023/10/21 07:56:54;;;;;;;0.88;0.88;;;13.40;95.70;;;;;;5030568;28;20222;-82
2023/10/21 07:59:22;;;;;;;0.90;0.90;;;13.40;94.80;;;;;;5031581;28;20207;-83
2023/10/21 08:01:51;;;;;;;1.20;1.10;;;13.50;94.70;;;;;;5030066;28;20248;-85
2023/10/21 08:04:18;;;;;;;1.27;0.93;;;13.60;94.80;;;;;;5028108;28;20197;-82
2023/10/21 08:06:46;;;;;;;2.90;1.20;;;13.70;94.60;;;;;;5029167;28;20198;-83
2023/10/21 08:09:14;;;;;;;1.15;1.05;;;13.80;94.30;;;;;;5029064;28;20218;-84
2023/10/21 08:11:43;;;;;;;1.10;1.00;;;13.90;94.40;;;;;;5029597;28;20659;-84
2023/10/21 08:14:09;;;;;;;1.95;1.00;;;14.00;93.90;;;;;;5028296;28;20197;-84
2023/10/21 08:16:38;;;;;;;1.65;1.50;;;14.00;93.40;;;;;;5024338;28;20195;-84
2023/10/21 08:19:05;;;;;;;2.33;1.08;;;14.30;92.10;;;;;;5028010;28;20202;-85
2023/10/21 08:21:33;;;;;;;2.67;1.35;;;14.40;92.20;;;;;;5030474;28;20210;-82
2023/10/21 08:24:02;;;;;;;1.30;1.20;;;14.50;91.30;;;;;;5029599;28;20211;-82
2023/10/21 08:26:29;;;;;;;1.10;1.00;;;14.60;91.40;;;;;;5029389;28;20199;-83
2023/10/21 08:28:56;;;;;;;2.85;0.80;;;14.70;91.70;;;;;;5026324;28;20298;-84
2023/10/21 08:31:24;;;;;;;0.70;0.70;;;14.80;90.90;;;;;;5034013;28;20563;-83
2023/10/21 08:33:52;;;;;;;0.85;0.80;;;15.00;90.60;;;;;;5025008;28;20285;-82
2023/10/21 08:36:20;;;;;;;0.98;0.80;;;15.00;90.30;;;;;;5026268;28;20190;-82
2023/10/21 08:38:48;;;;;;;2.58;0.90;;;15.10;89.90;;;;;;5028925;28;20214;-84
2023/10/21 08:41:15;;;;;;;1.10;1.02;;;15.20;89.70;;;;;;5023420;28;20604;-84
2023/10/21 08:43:46;;;;;;;2.38;0.98;;;15.30;85.60;;;;;;5028505;28;20202;-84
2023/10/21 08:46:15;;;;;;;0.90;0.90;;;15.50;84.50;;;;;;5030526;28;20190;-84
2023/10/21 08:48:44;;;;;;;1.73;0.80;;;15.80;82.10;;;;;;5029275;28;21013;-85
2023/10/21 08:51:16;;;;;;;0.70;0.70;;;16.30;79.80;;;;;;5033264;28;20222;-85
2023/10/21 08:53:47;;;;;;;0.77;0.77;;;16.90;73.60;;;;;;5029312;28;20682;-84
2023/10/21 08:56:14;;;;;;;0.60;0.60;;;17.60;58.50;;;;;;5029759;28;21168;-84
2023/10/21 08:58:43;;;;;;;1.17;0.90;;;18.10;54.20;;;;;;5016825;28;20195;-85
2023/10/21 09:01:10;;;;;;;0.80;0.80;;;18.80;49.10;;;;;;5030665;28;20555;-85
2023/10/21 09:03:37;;;;;;;0.90;0.90;;;19.40;47.20;;;;;;5025615;28;20203;-84
2023/10/21 09:06:10;;;;;;;1.35;0.77;;;19.80;44.00;;;;;;5028684;28;20198;-84
2023/10/21 09:08:40;;;;;;;1.38;1.00;;;20.10;40.00;;;;;;5027281;28;20229;-82
2023/10/21 09:11:07;;;;;;;0.90;0.80;;;21.00;32.90;;;;;;5028751;28;20195;-82
2023/10/21 09:13:36;;;;;;;1.00;1.00;;;21.90;27.30;;;;;;5029817;28;20192;-82
2023/10/21 09:16:04;;;;;;;1.33;0.90;;;23.50;21.00;;;;;;5029683;28;20213;-84
2023/10/21 09:18:34;;;;;;;0.90;0.90;;;24.70;16.60;;;;;;5029905;28;20682;-86
2023/10/21 09:21:02;;;;;;;0.90;0.90;;;24.90;15.40;;;;;;5031459;28;20194;-85
2023/10/21 09:23:29;;;;;;;1.10;1.10;;;25.20;14.40;;;;;;5031693;28;21516;-86
2023/10/21 09:25:59;;;;;;;2.15;1.10;;;25.60;14.40;;;;;;5034664;28;20804;-85
2023/10/21 09:28:26;;;;;;;1.10;1.00;;;26.30;14.80;;;;;;5033886;28;20587;-86
2023/10/21 09:30:58;;;;;;;1.30;1.20;;;26.10;13.00;;;;;;5030670;28;20586;-85
2023/10/21 09:33:25;;;;;;;1.17;1.17;;;25.60;14.40;;;;;;5031385;28;20653;-86
2023/10/21 09:36:03;;;;;;;2.08;1.20;;;25.90;12.80;;;;;;5029836;28;20643;-86
2023/10/21 09:38:36;;;;;;;1.27;1.20;;;26.50;11.80;;;;;;5031045;28;20190;-87
2023/10/21 09:41:07;;;;;;;1.08;1.08;;;27.10;11.00;;;;;;5030348;28;20263;-86
2023/10/21 09:43:38;;;;;;;1.38;1.27;;;25.90;12.10;;;;;;5032057;28;20206;-88
2023/10/21 09:46:06;;;;;;;1.25;1.15;;;25.20;14.20;;;;;;5032076;28;20197;-88
2023/10/21 09:48:40;;;;;;;1.67;1.10;;;25.10;14.20;;;;;;5026008;28;20205;-86
2023/10/21 09:51:12;;;;;;;1.55;1.08;;;24.60;14.00;;;;;;5026887;28;20238;-86
2023/10/21 09:53:41;;;;;;;1.50;1.30;;;25.00;14.20;;;;;;5028693;28;20193;-88
2023/10/21 09:56:15;;;;;;;1.10;1.00;;;26.10;12.90;;;;;;5032612;28;20259;-89
2023/10/21 09:58:43;;;;;;;2.47;1.10;;;26.10;13.20;;;;;;5029336;28;20190;-87
2023/10/21 10:01:11;;;;;;;1.27;1.10;;;25.80;12.70;;;;;;5007513;28;20194;-89
2023/10/21 10:03:39;;;;;;;1.30;1.20;;;25.30;14.30;;;;;;5034761;28;20244;-90
2023/10/21 10:06:08;;;;;;;0.98;0.98;;;24.40;14.20;;;;;;5031401;28;20264;-90
2023/10/21 10:08:37;;;;;;;1.27;1.20;;;23.50;15.80;;;;;;5030010;28;20634;-92
2023/10/21 10:11:13;;;;;;;1.38;0.98;;;22.60;18.00;;;;;;5035502;28;20198;-88
2023/10/21 10:13:46;;;;;;;0.90;0.90;;;21.60;19.30;;;;;;5030506;28;20252;-87
2023/10/21 10:16:21;;;;;;;2.22;0.80;;;20.50;21.60;;;;;;5029205;28;20204;-84
2023/10/21 10:18:49;;;;;;;0.60;0.60;;;19.90;24.60;;;;;;5034610;28;20891;-84
2023/10/21 10:21:20;;;;;;;0.70;0.70;;;19.40;27.40;;;;;;5041496;28;20190;-86
2023/10/21 10:23:51;;;;;;;0.70;0.70;;;19.20;28.70;;;;;;5034875;28;20197;-85
2023/10/21 10:26:34;;;;;;;3.47;0.77;;;18.80;31.00;;;;;;5032375;28;20194;-86
2023/10/21 10:29:18;;;;;;;0.70;0.70;;;18.70;31.50;;;;;;5037614;28;20205;-85
2023/10/21 10:31:45;;;;;;;1.60;1.00;;;18.60;33.50;;;;;;5031757;28;20198;-86
2023/10/21 10:34:12;;;;;;;1.80;0.90;;;18.40;34.90;;;;;;5030779;28;20718;-88
2023/10/21 10:36:39;;;;;;;0.88;0.88;;;18.40;35.60;;;;;;5033004;28;20346;-88
2023/10/21 10:39:06;;;;;;;0.80;0.80;;;18.40;35.60;;;;;;5031064;28;20541;-88
2023/10/21 10:41:48;;;;;;;0.80;0.80;;;18.30;36.70;;;;;;5029838;28;20213;-89
2023/10/21 10:44:15;;;;;;;0.80;0.80;;;18.40;36.40;;;;;;5032257;28;20647;-87
2023/10/21 10:46:46;;;;;;;1.17;0.70;;;18.50;35.70;;;;;;5033707;28;20186;-84
2023/10/21 10:49:12;;;;;;;0.70;0.70;;;18.60;35.00;;;;;;5032460;28;20339;-90
2023/10/21 10:51:45;;;;;;;0.80;0.80;;;18.80;33.70;;;;;;5032975;28;20207;-90
2023/10/21 10:54:17;;;;;;;1.60;0.90;;;18.80;33.60;;;;;;5026538;28;20271;-88
2023/10/21 10:56:47;;;;;;;0.60;0.60;;;18.80;35.40;;;;;;5028756;28;20209;-88
2023/10/21 10:59:17;;;;;;;1.67;1.05;;;18.80;36.70;;;;;;5030704;28;20197;-91
2023/10/21 11:01:43;;;;;;;0.90;0.70;;;19.00;33.80;;;;;;5030979;28;20211;-89
2023/10/21 11:04:11;;;;;;;1.08;0.90;;;19.20;32.60;;;;;;5011811;28;20246;-89
2023/10/21 11:06:39;;;;;;;0.70;0.70;;;19.30;31.50;;;;;;5027445;28;20195;-89
2023/10/21 11:09:09;;;;;;;0.88;0.75;;;19.50;28.20;;;;;;5032297;28;20190;-90
2023/10/21 11:11:48;;;;;;;0.95;0.63;;;19.50;29.60;;;;;;5035720;28;20198;-87
2023/10/21 11:14:16;;;;;;;1.35;0.90;;;19.50;26.20;;;;;;5029676;28;20230;-88
2023/10/21 11:16:43;;;;;;;1.17;0.70;;;19.50;26.40;;;;;;5030511;28;20274;-89
2023/10/21 11:19:10;;;;;;;0.95;0.70;;;19.40;26.20;;;;;;5031199;28;20641;-90
2023/10/21 11:21:39;;;;;;;2.70;0.90;;;19.50;25.80;;;;;;5031577;28;20218;-87
2023/10/21 11:24:08;;;;;;;0.52;0.52;;;19.30;25.90;;;;;;5030708;28;20198;-88
2023/10/21 11:26:35;;;;;;;0.98;0.88;;;19.00;27.30;;;;;;5027320;28;20670;-89
2023/10/21 11:29:05;;;;;;;1.17;0.90;;;18.90;29.30;;;;;;5033376;28;20193;-87
2023/10/21 11:31:33;;;;;;;0.80;0.80;;;18.60;30.80;;;;;;5029740;28;20203;-87
2023/10/21 11:34:09;;;;;;;1.75;0.90;;;18.50;30.90;;;;;;5030586;28;20293;-87
2023/10/21 11:36:36;;;;;;;2.05;0.70;;;18.30;30.70;;;;;;5029745;28;20186;-87
2023/10/21 11:39:12;;;;;;;2.97;0.60;;;18.20;30.60;;;;;;5031936;28;20201;-87
2023/10/21 11:41:43;;;;;;;1.15;0.50;;;18.20;32.30;;;;;;5032873;28;20601;-87
2023/10/21 11:44:12;;;;;;;2.05;0.90;;;18.10;30.50;;;;;;5033956;28;20190;-87
2023/10/21 11:46:39;;;;;;;1.52;0.88;;;18.10;33.20;;;;;;5023116;28;20214;-87
2023/10/21 11:49:13;;;;;;;1.75;0.98;;;18.00;32.80;;;;;;5029677;28;20201;-87
2023/10/21 11:51:41;;;;;;;2.67;0.93;;;18.10;33.30;;;;;;5024574;28;20210;-87
2023/10/21 11:54:19;;;;;;;1.63;0.90;;;18.40;33.50;;;;;;5034046;28;20267;-87
2023/10/21 11:56:59;;;;;;;4.82;1.27;;;18.30;33.70;;;;;;5029445;28;20222;-87
2023/10/21 12:05:49;;;;;;;1.60;0.70;;;18.60;33.40;;;;;;4918687;28;20211;-87
2023/10/21 12:14:21;;;;;;;0.90;0.90;;;19.00;31.20;;;;;;5029465;28;21291;-87
2023/10/21 12:17:05;;;;;;;1.23;0.65;;;19.00;31.20;;;;;;5029323;28;20282;-87
2023/10/21 12:19:48;;;;;;;1.33;0.77;;;19.00;31.20;;;;;;5027513;28;20256;-87
2023/10/21 12:36:32;;;;;;;1.65;0.88;;;19.00;31.20;;;;;;5030164;28;20713;-87
2023/10/21 12:41:41;;;;;;;0.80;0.63;;;19.10;31.30;;;;;;5025737;28;20195;-87
2023/10/21 12:44:13;;;;;;;1.63;1.45;;;19.10;31.30;;;;;;5029935;28;20277;-88
2023/10/21 12:46:41;;;;;;;1.20;1.10;;;19.00;31.20;;;;;;5019840;28;20195;-87
2023/10/21 12:49:13;;;;;;;0.70;0.70;;;19.00;31.20;;;;;;5032159;28;20282;-87
2023/10/21 12:51:41;;;;;;;0.60;0.60;;;19.00;31.20;;;;;;5032914;28;20237;-87
2023/10/21 12:54:11;;;;;;;1.27;0.85;;;18.90;31.10;;;;;;5034161;28;20195;-87
2023/10/21 12:56:38;;;;;;;1.17;1.10;;;18.80;31.50;;;;;;5036944;28;20241;-87
2023/10/21 12:59:06;;;;;;;1.13;1.00;;;18.70;31.00;;;;;;5031338;28;20643;-87
2023/10/21 13:01:33;;;;;;;1.17;0.88;;;18.70;31.00;;;;;;5032062;28;20201;-87
2023/10/21 13:04:00;;;;;;;1.27;1.17;;;18.50;30.90;;;;;;5036650;28;20194;-87
2023/10/21 13:06:28;;;;;;;1.25;0.90;;;18.50;30.90;;;;;;5032723;28;20209;-87
2023/10/21 13:08:56;;;;;;;0.85;0.80;;;18.40;30.70;;;;;;5032855;28;20194;-87
2023/10/21 13:11:23;;;;;;;0.80;0.80;;;18.10;30.50;;;;;;5032237;28;20222;-87
2023/10/21 13:13:51;;;;;;;3.67;2.42;;;18.10;30.50;;;;;;5032488;28;20197;-87
2023/10/21 13:16:18;;;;;;;2.15;0.90;;;18.10;30.50;;;;;;5038242;28;20197;-87
2023/10/21 13:18:45;;;;;;;1.63;0.98;;;18.30;30.70;;;;;;5023489;28;20200;-88
2023/10/21 13:21:11;;;;;;;1.75;1.30;;;18.20;30.60;;;;;;5033413;28;20199;-90
2023/10/21 13:23:40;;;;;;;0.95;0.90;;;18.10;30.50;;;;;;5030947;28;20197;-87